Fort Worth, TX

10:18 PM CDT on March 29, 2015 (GMT -0500)
Near Southside | | Change Station
CLOSE
Current Station
Personal Weather Station
Location: Fort Worth, TX
Elevation: 650 ft
Nearby Weather Stations

Elev 650 ft 32.74 °N, 97.33 °W | Updated 3 minutes ago

Partly Cloudy
Partly Cloudy
75.0 °F
Feels Like 78 °F
N
2.0
Wind Variable Wind from SW
Gusts 5.0 mph

Today
High -- | Low -- °F
--% Chance of Precip.
Yesterday
High -- | Low -- °F
Precip. -- in
7:21 AM 7:47 PM
Waxing Gibbous, 76% visible
Pressure 30.02 in
Visibility 10.0 miles
Clouds Mostly Cloudy 9000 ft
Heat Index 78 °F
Dew Point 56 °F
Humidity 52%
Rainfall 0.00 in
Snow Depth Not available.
UV 0 out of 12
Pollen 11.60 out of 12
Air Quality Not available.
Flu Activity Not available.
METAR KFTW 300253Z 17008KT 10SM BKN090 23/13 A3004 RMK AO2 SLP166 T02280133 53035

More Conditions Fewer Conditions

Pressure 30.02 in
Visibility 10.0 miles
Clouds Mostly Cloudy 9000 ft
Heat Index 78 °F
Dew Point 56 °F
Humidity 52%
Rainfall 0.00 in
Snow Depth Not available.
UV 0 out of 12
Pollen 11.60 out of 12
Air Quality Not available.
Flu Activity Not available.
METAR KFTW 300253Z 17008KT 10SM BKN090 23/13 A3004 RMK AO2 SLP166 T02280133 53035

More Conditions Fewer Conditions

Nowcast | as of 9:28 PM CDT on March 29, 2015

A few showers will develop east of Interstate 35 and north of Interstate 20 through late evening. These showers will be brief and produce only light rainfall amounts as they move east southeast around 25 mph. An isolated thunderstorms is also possible in the same area. Any storm that develops will be capable of gusty winds to 40 mph and occasional lightning. The rest of North Texas will remain mostly clear through late evening with temperatures slowly cooling into the upper 60s and lower 70s by 11 PM.

×

10-Day Weather Forecast

Almanac

Astronomy

Mar. 29, 2015 Rise Set
Actual Time
Civil Twilight
Nautical Twilight
Astronomical Twilight
Moon
Length of Visible Light
Length of Day
Tomorrow will be .
, % of the Moon is Illuminated

Today's Extremes

State Highs State Lows

Community

WunderPhotos

Upload Photos

1,809,420 photos uploaded!

WunderBlogs® & News

Nearby

Air Quality

  Air Quality AQ Index Pollutant
Not available.

Snow Depth

Station Depth Elevation

Earthquake Activity

City Distance Mag. Time & Date
Minimum magnitude displayed is 2.5.

Coastal Water Temperatures

Place Temperature

Stations

Nearby Weather Stations

Station Location Temp. Windchill Dew Point Humidity Wind Precip. Elev Updated Type